Time;durP1;ratioP1;P1;durP2;ratioP2;P2;SDS_P1;SDS_P2;PMS_P1;PMS_P2;Temp;Humidity;BMP_temperature;BMP_pressure;BME280_temperature;BME280_humidity;BME280_pressure;Samples;Min_cycle;Max_cycle;Signal;HPM_P1;HPM_P2
2022/12/17 13:08:12;;;;;;;80.78;28.67;;;;;;;-1.54;61.12;100097.00;5170578;28;20058;-71
2022/12/17 13:11:11;;;;;;;84.03;29.15;;;;;;;-1.73;61.62;100086.22;5168629;28;20539;-70
2022/12/17 13:14:09;;;;;;;82.38;28.75;;;;;;;-1.87;62.30;100092.69;5177505;28;20082;-70
2022/12/17 13:17:15;;;;;;;85.38;29.35;;;;;;;-1.61;61.44;100092.03;5180904;28;20076;-71
2022/12/17 13:20:28;;;;;;;84.60;30.75;;;;;;;-1.74;61.91;100083.69;5169984;28;20072;-71
2022/12/17 13:23:28;;;;;;;81.03;28.57;;;;;;;-1.70;62.15;100073.16;5172657;28;20054;-71
2022/12/17 13:26:40;;;;;;;72.40;25.48;;;;;;;-1.77;62.29;100086.34;5169672;28;20523;-68
2022/12/17 13:29:33;;;;;;;87.43;29.25;;;;;;;-1.92;62.32;100085.00;5178994;28;20057;-71
2022/12/17 13:32:41;;;;;;;83.63;29.80;;;;;;;-1.81;62.96;100082.13;5169676;28;20127;-69
2022/12/17 13:35:40;;;;;;;84.10;29.80;;;;;;;-1.94;62.76;100086.78;5173036;28;20504;-70
2022/12/17 13:38:44;;;;;;;88.13;32.20;;;;;;;-2.41;62.81;100087.06;5169178;28;20054;-69
2022/12/17 13:41:37;;;;;;;79.40;27.00;;;;;;;-2.37;63.18;100086.09;5178003;28;20050;-69
2022/12/17 13:44:39;;;;;;;80.17;29.17;;;;;;;-2.22;62.59;100092.69;5178014;28;20042;-70
2022/12/17 13:47:37;;;;;;;87.53;32.00;;;;;;;-2.24;62.63;100080.59;5176681;28;20114;-69
2022/12/17 13:50:30;;;;;;;84.18;28.27;;;;;;;-2.42;62.57;100074.97;5173564;28;20587;-69
2022/12/17 13:53:26;;;;;;;76.90;27.35;;;;;;;-2.18;62.74;100070.91;5167827;28;20061;-71
2022/12/17 13:56:22;;;;;;;80.47;28.27;;;;;;;-2.33;62.66;100075.63;5172860;28;20121;-71
2022/12/17 13:59:30;;;;;;;75.25;28.05;;;;;;;-2.36;63.53;100079.13;5174194;28;20061;-71
2022/12/17 14:02:32;;;;;;;72.95;27.17;;;;;;;-2.24;62.47;100083.22;5172863;28;20050;-69
2022/12/17 14:05:32;;;;;;;82.82;29.48;;;;;;;-2.29;62.92;100088.50;5174145;28;20049;-69
2022/12/17 14:08:27;;;;;;;81.55;28.42;;;;;;;-2.44;62.92;100096.66;5159954;28;20061;-69
2022/12/17 14:14:33;;;;;;;69.43;27.35;;;;;;;-2.66;63.15;100083.31;5166566;28;20061;-70
2022/12/17 14:17:34;;;;;;;72.20;26.35;;;;;;;-2.72;63.49;100109.38;5166921;28;20415;-70
2022/12/17 14:20:29;;;;;;;81.38;27.48;;;;;;;-2.77;63.01;100101.72;5156849;28;20046;-69
2022/12/17 14:23:27;;;;;;;73.18;27.80;;;;;;;-2.81;61.99;100110.47;5192817;28;20060;-69
2022/12/17 14:26:20;;;;;;;77.65;28.98;;;;;;;-2.85;62.34;100120.06;5178321;28;20046;-70
2022/12/17 14:29:13;;;;;;;72.15;26.98;;;;;;;-2.98;62.34;100099.56;5165705;28;20057;-67
2022/12/17 14:32:22;;;;;;;73.03;26.48;;;;;;;-3.04;62.03;100118.72;5172300;28;20042;-68
2022/12/17 14:35:28;;;;;;;71.55;24.80;;;;;;;-3.08;63.02;100124.84;5163537;28;20066;-68
2022/12/17 14:38:18;;;;;;;74.55;26.40;;;;;;;-2.94;63.68;100127.19;5173999;28;20045;-69
2022/12/17 14:44:56;;;;;;;74.47;27.02;;;;;;;-3.22;63.37;100124.25;5188479;28;20060;-69
2022/12/17 14:48:00;;;;;;;77.10;26.77;;;;;;;-3.18;62.88;100118.13;5161781;28;20073;-68
2022/12/17 14:50:54;;;;;;;75.88;27.20;;;;;;;-3.27;62.67;100110.53;5174655;28;20053;-67
2022/12/17 14:53:45;;;;;;;76.90;26.80;;;;;;;-3.32;62.90;100118.41;5162899;28;20056;-67
2022/12/17 14:56:35;;;;;;;85.88;26.75;;;;;;;-3.46;63.53;100123.84;5178386;28;20076;-68
2022/12/17 14:59:33;;;;;;;81.60;27.75;;;;;;;-3.45;61.81;100120.34;5182537;28;20053;-68
2022/12/17 15:02:29;;;;;;;74.40;25.48;;;;;;;-3.67;61.74;100109.53;5162349;28;20072;-68
2022/12/17 15:05:20;;;;;;;70.68;25.10;;;;;;;-3.68;61.09;100106.97;5149337;28;20423;-69
2022/12/17 15:08:10;;;;;;;74.05;26.15;;;;;;;-3.91;61.97;100110.81;5171906;28;20130;-69
2022/12/17 15:11:01;;;;;;;72.03;24.48;;;;;;;-4.05;62.54;100116.22;5170470;28;20518;-68
2022/12/17 15:13:52;;;;;;;77.28;26.48;;;;;;;-4.09;62.78;100113.72;5153101;28;20432;-68
2022/12/17 15:16:46;;;;;;;65.70;23.73;;;;;;;-4.26;62.57;100117.41;5167519;28;20196;-69
2022/12/17 15:19:36;;;;;;;76.18;26.80;;;;;;;-4.50;61.03;100102.28;5167890;28;20057;-68
2022/12/17 15:22:27;;;;;;;71.53;24.48;;;;;;;-4.56;60.94;100123.06;5168845;28;20061;-69
2022/12/17 15:25:18;;;;;;;70.40;23.50;;;;;;;-4.58;62.45;100127.38;5167771;28;20054;-68
2022/12/17 15:28:10;;;;;;;73.63;24.08;;;;;;;-4.59;62.60;100133.47;5179916;28;20057;-70
2022/12/17 15:31:00;;;;;;;85.50;28.10;;;;;;;-4.80;63.15;100126.81;5181980;28;20049;-70
2022/12/17 15:33:51;;;;;;;76.65;25.48;;;;;;;-4.90;63.64;100139.03;5181253;28;20117;-69
2022/12/17 15:36:41;;;;;;;76.28;26.42;;;;;;;-4.90;62.27;100130.41;5181372;28;20649;-69
2022/12/17 15:39:32;;;;;;;77.53;25.35;;;;;;;-5.23;62.88;100129.97;5161687;28;20046;-70
2022/12/17 15:45:34;;;;;;;80.53;26.00;;;;;;;-5.28;62.13;100137.75;5171029;28;20046;-68
2022/12/17 15:48:24;;;;;;;;;;;;;;;-5.38;62.85;100143.88;5162123;28;20137;-68
2022/12/17 15:51:15;;;;;;;68.72;23.58;;;;;;;-5.34;63.45;100137.81;5161830;28;20012;-69
2022/12/17 15:54:09;;;;;;;83.20;25.90;;;;;;;-5.34;63.00;100142.97;5180854;28;20157;-70
2022/12/17 15:56:59;;;;;;;80.47;25.75;;;;;;;-5.32;62.67;100138.66;5175779;28;20171;-70
2022/12/17 15:59:50;;;;;;;69.75;24.67;;;;;;;-5.36;62.20;100142.16;5188216;28;20431;-68
2022/12/17 16:02:40;;;;;;;83.63;26.83;;;;;;;-5.57;62.66;100153.53;5171670;28;20051;-68
2022/12/17 16:05:30;;;;;;;76.60;25.67;;;;;;;-5.84;63.11;100153.81;5181181;28;20513;-69
2022/12/17 16:08:21;;;;;;;81.88;27.10;;;;;;;-5.84;63.08;100110.75;5191758;28;20068;-70
2022/12/17 16:11:13;;;;;;;77.95;27.38;;;;;;;-5.63;64.58;100165.66;5186377;28;20099;-69
2022/12/17 16:14:04;;;;;;;83.70;26.17;;;;;;;-5.66;64.65;100169.16;5182848;28;20053;-69
2022/12/17 16:16:54;;;;;;;80.07;25.83;;;;;;;-5.58;63.83;100171.66;5172039;28;20123;-69
2022/12/17 16:19:44;;;;;;;73.75;25.35;;;;;;;-6.28;64.05;100132.66;5188122;28;20578;-69
2022/12/17 16:22:36;;;;;;;82.13;26.08;;;;;;;-5.87;63.86;100177.94;5180638;28;20053;-69
2022/12/17 16:25:27;;;;;;;79.82;27.27;;;;;;;-5.98;64.29;100166.88;5187913;28;20057;-68
2022/12/17 16:28:17;;;;;;;74.30;24.83;;;;;;;-5.78;63.33;100174.44;5195945;28;20131;-69
2022/12/17 16:31:10;;;;;;;82.30;25.67;;;;;;;-5.79;62.64;100173.56;5181838;28;20053;-68
2022/12/17 16:34:01;;;;;;;75.50;25.42;;;;;;;-6.10;63.08;100154.91;5187401;23;20056;-73
2022/12/17 16:36:52;;;;;;;78.60;25.70;;;;;;;-5.93;63.10;100175.41;5160728;28;20054;-70
2022/12/17 16:39:42;;;;;;;84.45;27.80;;;;;;;-5.57;64.28;100173.38;5182202;28;20061;-69
2022/12/17 16:42:32;;;;;;;77.50;27.60;;;;;;;-5.51;65.08;100165.56;5166873;28;20050;-69
2022/12/17 16:45:22;;;;;;;90.18;27.95;;;;;;;-5.95;65.08;100166.84;5180706;28;20532;-70
2022/12/17 16:48:12;;;;;;;82.97;28.35;;;;;;;-5.93;66.15;100170.25;5164324;28;20052;-71
2022/12/17 16:51:15;;;;;;;89.30;27.83;;;;;;;-5.81;65.15;100156.38;5178638;28;20425;-70
2022/12/17 16:54:17;;;;;;;95.95;28.55;;;;;;;-5.88;66.30;100178.81;5183107;28;20089;-71
2022/12/17 16:57:07;;;;;;;98.15;29.35;;;;;;;-5.95;65.89;100175.44;5180033;28;20054;-70
2022/12/17 16:59:57;;;;;;;82.28;27.38;;;;;;;-5.97;63.93;100145.34;5179198;28;20045;-70
2022/12/17 17:02:47;;;;;;;94.55;29.63;;;;;;;-5.96;64.61;100162.53;5182202;28;20053;-70
2022/12/17 17:05:42;;;;;;;92.85;29.00;;;;;;;-5.98;65.30;100179.78;5156434;28;20477;-71
2022/12/17 17:08:37;;;;;;;95.95;28.77;;;;;;;-6.16;64.87;100173.88;5167967;28;20503;-72
2022/12/17 17:11:28;;;;;;;96.30;28.63;;;;;;;-6.20;66.15;100181.66;5153346;28;20154;-71
2022/12/17 17:14:19;;;;;;;83.55;26.48;;;;;;;-5.91;64.10;100178.81;5152832;28;20622;-72
2022/12/17 17:17:09;;;;;;;91.00;27.70;;;;;;;-6.06;64.34;100182.44;5166651;28;20057;-70
2022/12/17 17:19:59;;;;;;;90.78;27.85;;;;;;;-6.20;65.38;100161.00;5181966;28;20058;-69
2022/12/17 17:22:50;;;;;;;92.57;28.80;;;;;;;-6.45;65.12;100171.50;5177677;28;20049;-70
2022/12/17 17:25:40;;;;;;;98.35;28.27;;;;;;;-6.32;65.18;100192.91;5164072;28;20080;-70
2022/12/17 17:28:47;;;;;;;88.20;28.73;;;;;;;-6.58;65.69;100174.16;5159227;28;20123;-72
2022/12/17 17:31:38;;;;;;;86.40;28.33;;;;;;;-6.42;64.74;100199.00;5178485;28;20075;-70
2022/12/17 17:34:48;;;;;;;83.20;26.80;;;;;;;-6.54;65.19;100205.06;5178328;28;20057;-71
2022/12/17 17:37:38;;;;;;;91.65;28.00;;;;;;;-6.43;64.48;100205.00;5178364;28;20057;-74
2022/12/17 17:40:28;;;;;;;94.57;28.17;;;;;;;-6.39;63.70;100211.88;5179579;28;20064;-71
2022/12/17 17:43:18;;;;;;;90.55;28.25;;;;;;;-6.65;64.54;100218.03;5177800;28;20128;-69
2022/12/17 17:46:12;;;;;;;98.28;30.33;;;;;;;-6.82;64.99;100203.47;5175056;28;20075;-70
2022/12/17 17:49:04;;;;;;;92.32;30.00;;;;;;;-6.70;64.44;100219.75;5159141;28;20419;-70
2022/12/17 17:51:54;;;;;;;99.13;32.03;;;;;;;-6.60;64.15;100218.00;5156703;28;20046;-70
2022/12/17 17:55:01;;;;;;;83.75;27.83;;;;;;;-6.85;65.47;100225.00;5165338;28;20442;-69
2022/12/17 17:57:51;;;;;;;91.25;27.52;;;;;;;-6.66;63.45;100231.78;5181297;28;20054;-70
2022/12/17 18:00:42;;;;;;;95.47;29.67;;;;;;;-6.74;62.30;100223.22;5174570;28;20115;-70
2022/12/17 18:03:32;;;;;;;91.50;28.35;;;;;;;-6.93;63.93;100208.66;5163253;28;20061;-71
2022/12/17 18:06:22;;;;;;;90.07;28.17;;;;;;;-6.88;64.63;100212.97;5159952;28;20563;-71
2022/12/17 18:09:13;;;;;;;90.97;28.20;;;;;;;-6.76;63.14;100203.44;5159197;28;20054;-70
2022/12/17 18:13:53;;;;;;;93.55;27.88;;;;;;;-6.94;63.57;100214.69;5172243;28;20189;-70
2022/12/17 18:15:15;;;;;;;89.20;28.83;;;;;;;-6.92;64.38;100225.84;5185357;28;20460;-70
2022/12/17 18:18:07;;;;;;;96.70;29.10;;;;;;;-7.23;63.79;100225.94;5148162;28;20579;-70
2022/12/17 18:21:06;;;;;;;96.80;28.92;;;;;;;-7.28;64.06;100222.53;5167661;28;20511;-72
2022/12/17 18:24:01;;;;;;;85.22;29.00;;;;;;;-7.34;64.59;100219.94;5167599;28;20050;-69
2022/12/17 18:26:52;;;;;;;93.35;27.67;;;;;;;-7.21;64.49;100224.22;5151824;28;20535;-70
2022/12/17 18:29:42;;;;;;;93.60;27.55;;;;;;;-7.39;65.17;100183.00;5153163;28;20219;-70
2022/12/17 18:32:32;;;;;;;95.00;29.98;;;;;;;-7.18;65.46;100216.47;5146250;28;20058;-71
2022/12/17 18:35:22;;;;;;;87.57;29.27;;;;;;;-7.15;64.68;100228.47;5166587;28;20076;-71
2022/12/17 18:38:13;;;;;;;103.35;34.08;;;;;;;-7.24;65.43;100228.53;5177399;28;20062;-70
2022/12/17 18:43:21;;;;;;;112.15;35.65;;;;;;;-7.32;66.27;100223.38;5149282;28;20057;-70
2022/12/17 18:44:17;;;;;;;107.95;31.98;;;;;;;-7.23;67.15;100210.47;5180747;28;20054;-70
2022/12/17 18:47:09;;;;;;;108.00;33.22;;;;;;;-7.11;65.88;100228.50;5150776;28;20053;-71
2022/12/17 18:49:59;;;;;;;104.45;31.38;;;;;;;-7.11;66.28;100233.66;5181561;28;20242;-70
2022/12/17 18:52:49;;;;;;;106.18;33.72;;;;;;;-7.28;66.22;100237.97;5161489;28;20165;-69
2022/12/17 18:55:39;;;;;;;103.30;33.80;;;;;;;-7.23;65.37;100246.56;5168580;28;20551;-70
2022/12/17 18:58:29;;;;;;;102.22;33.60;;;;;;;-7.41;65.89;100242.28;5165371;28;20180;-69
2022/12/17 19:01:25;;;;;;;117.68;36.58;;;;;;;-7.30;65.63;100238.84;5176844;28;20104;-70
2022/12/17 19:04:18;;;;;;;108.13;35.92;;;;;;;-7.25;65.75;100253.44;5180396;28;20052;-72
2022/12/17 19:07:09;;;;;;;110.82;34.53;;;;;;;-7.28;66.41;100250.88;5161255;28;20049;-69
2022/12/17 19:10:01;;;;;;;108.70;32.97;;;;;;;-7.24;66.61;100241.41;5177172;28;20050;-71
2022/12/17 19:12:51;;;;;;;117.10;35.95;;;;;;;-7.19;66.32;100250.84;5180443;28;20050;-71
2022/12/17 19:15:41;;;;;;;109.53;33.30;;;;;;;-7.31;66.43;100226.81;5175111;28;20412;-70
2022/12/17 19:18:32;;;;;;;101.32;32.85;;;;;;;-7.27;66.57;100255.16;5181179;28;20089;-71
2022/12/17 19:21:23;;;;;;;116.63;33.70;;;;;;;-7.33;66.60;100250.84;5149912;28;20492;-71
2022/12/17 19:24:15;;;;;;;97.55;30.73;;;;;;;-7.09;65.79;100268.00;5161966;28;20059;-70
2022/12/17 19:27:06;;;;;;;111.30;33.42;;;;;;;-6.92;64.39;100267.09;5161244;28;20273;-71
2022/12/17 19:29:56;;;;;;;103.03;32.90;;;;;;;-7.07;64.44;100275.75;5161933;28;20049;-71
2022/12/17 19:32:46;;;;;;;98.72;34.42;;;;;;;-7.22;64.52;100262.88;5171203;28;20053;-71
2022/12/17 19:35:37;;;;;;;113.57;34.97;;;;;;;-7.27;64.51;100280.06;5161149;28;20171;-70
2022/12/17 19:38:27;;;;;;;111.93;34.42;;;;;;;-7.54;64.69;100268.91;5181753;28;20061;-71
2022/12/17 19:41:18;;;;;;;116.43;35.53;;;;;;;-7.59;65.08;100284.34;5169010;28;20049;-71
2022/12/17 19:44:12;;;;;;;118.20;35.00;;;;;;;-7.50;63.71;100293.81;5183463;28;20309;-71
2022/12/17 19:47:02;;;;;;;113.55;35.28;;;;;;;-7.57;61.94;100269.75;5169253;28;20053;-69
2022/12/17 19:49:52;;;;;;;114.90;33.83;;;;;;;-7.58;62.85;100291.25;5171306;28;20072;-70
2022/12/17 19:52:42;;;;;;;106.45;34.70;;;;;;;-7.60;62.70;100295.53;5164110;28;20066;-69
2022/12/17 19:55:32;;;;;;;116.10;36.80;;;;;;;-7.67;64.32;100296.38;5170421;28;20120;-70
2022/12/17 19:58:23;;;;;;;115.72;36.05;;;;;;;-7.55;64.63;100298.09;5182025;28;20045;-68
2022/12/17 20:01:18;;;;;;;105.38;33.95;;;;;;;-7.50;64.54;100275.78;5163378;28;20141;-71
2022/12/17 20:04:11;;;;;;;114.03;35.92;;;;;;;-7.50;65.48;100288.66;5164245;28;20160;-69
2022/12/17 20:07:01;;;;;;;118.53;37.30;;;;;;;-7.46;65.23;100282.63;5165151;28;20140;-72
2022/12/17 20:09:52;;;;;;;112.05;36.35;;;;;;;-7.56;64.74;100284.34;5170781;28;20520;-74
2022/12/17 20:12:42;;;;;;;116.38;36.00;;;;;;;-7.48;65.39;100296.38;5178234;28;20046;-70
2022/12/17 20:15:33;;;;;;;111.63;36.20;;;;;;;-7.72;65.22;100285.19;5177604;28;20042;-69
2022/12/17 20:18:23;;;;;;;110.63;35.45;;;;;;;-7.85;63.91;100288.63;5164915;28;20050;-69
2022/12/17 20:21:13;;;;;;;119.43;37.42;;;;;;;-7.99;63.25;100288.59;5161239;28;20064;-70
2022/12/17 20:24:03;;;;;;;118.97;36.38;;;;;;;-7.99;64.40;100274.88;5167788;28;20077;-68
2022/12/17 20:26:54;;;;;;;120.40;36.60;;;;;;;-7.92;64.75;100294.63;5181468;28;20132;-74
2022/12/17 20:29:44;;;;;;;143.65;44.78;;;;;;;-7.81;63.91;100287.78;5182060;28;20056;-72
2022/12/17 20:32:34;;;;;;;115.22;36.20;;;;;;;-7.96;63.81;100270.59;5175566;28;20052;-70
2022/12/17 20:35:24;;;;;;;119.65;37.65;;;;;;;-8.05;64.57;100279.13;5177265;28;20061;-70
2022/12/17 20:38:14;;;;;;;116.22;36.47;;;;;;;-8.06;64.38;100281.72;5176634;28;20136;-70
2022/12/17 20:41:13;;;;;;;121.03;38.28;;;;;;;-8.14;64.55;100289.44;5176777;28;20069;-70
2022/12/17 20:44:06;;;;;;;120.50;41.58;;;;;;;-8.34;64.75;100286.78;5160152;28;20463;-70
2022/12/17 20:46:57;;;;;;;118.47;37.40;;;;;;;-7.98;65.22;100280.00;5152594;28;20152;-69
2022/12/17 20:49:47;;;;;;;121.97;38.03;;;;;;;-8.19;64.44;100267.09;5178462;28;20084;-70
2022/12/17 20:52:37;;;;;;;124.80;38.72;;;;;;;-7.94;64.36;100276.59;5174647;28;20098;-70
2022/12/17 20:55:27;;;;;;;113.47;36.55;;;;;;;-8.13;65.99;100275.69;5165512;28;20799;-69
2022/12/17 20:58:20;;;;;;;113.30;34.20;;;;;;;-8.20;65.42;100275.69;5176572;28;20049;-70
2022/12/17 21:01:19;;;;;;;120.13;35.45;;;;;;;-8.27;65.91;100283.38;5174343;28;20073;-69
2022/12/17 21:04:12;;;;;;;105.03;33.58;;;;;;;-8.30;65.74;100285.09;5177951;28;20417;-70
2022/12/17 21:07:02;;;;;;;110.28;33.83;;;;;;;-8.34;64.97;100271.34;5176570;28;20115;-69
2022/12/17 21:09:52;;;;;;;116.72;34.30;;;;;;;-8.39;65.91;100275.66;5165433;28;20065;-76
2022/12/17 21:15:53;;;;;;;108.53;33.97;;;;;;;-8.37;65.30;100279.06;5174071;28;20065;-70
2022/12/17 21:18:43;;;;;;;118.40;34.28;;;;;;;-8.38;65.47;100287.66;5183005;28;20056;-71
2022/12/17 21:21:36;;;;;;;129.32;38.38;;;;;;;-8.47;66.26;100279.06;5178229;28;20053;-70
2022/12/17 21:24:26;;;;;;;120.22;36.13;;;;;;;-8.40;65.90;100275.66;5148827;28;20061;-70
2022/12/17 21:27:16;;;;;;;116.43;38.33;;;;;;;-8.39;66.53;100280.78;5178248;28;20116;-70
2022/12/17 21:30:06;;;;;;;108.28;34.53;;;;;;;-8.23;67.00;100276.53;5162684;28;20050;-70
2022/12/17 21:33:02;;;;;;;101.03;34.45;;;;;;;-7.97;67.41;100284.31;5175697;28;20200;-70
2022/12/17 21:36:04;;;;;;;125.25;36.15;;;;;;;-8.05;66.42;100281.72;5176824;28;20101;-69
2022/12/17 21:38:58;;;;;;;115.40;34.22;;;;;;;-8.06;66.37;100280.00;5162178;28;20085;-70
2022/12/17 21:44:57;;;;;;;116.97;36.20;;;;;;;-8.41;65.78;100294.50;5177891;28;20434;-71
2022/12/17 21:47:47;;;;;;;123.65;34.13;;;;;;;-8.43;65.98;100304.78;5176726;28;20140;-71
2022/12/17 21:50:44;;;;;;;109.18;33.40;;;;;;;-8.60;65.68;100291.88;5160030;28;20045;-70
2022/12/17 21:53:36;;;;;;;97.32;33.10;;;;;;;-8.23;65.90;100301.41;5163689;28;20054;-70
2022/12/17 21:56:27;;;;;;;111.80;34.17;;;;;;;-7.94;63.94;100306.63;5180226;28;20112;-70
2022/12/17 21:59:17;;;;;;;116.13;35.35;;;;;;;-8.32;65.49;100309.94;5165495;28;20112;-70
2022/12/17 22:02:09;;;;;;;115.82;36.58;;;;;;;-8.38;65.90;100309.94;5181311;28;20936;-70
2022/12/17 22:04:59;;;;;;;124.53;41.43;;;;;;;-8.43;64.93;100316.78;5166152;28;20668;-70
2022/12/17 22:07:50;;;;;;;118.60;37.67;;;;;;;-8.68;65.55;100318.38;5166593;28;20057;-70
2022/12/17 22:10:42;;;;;;;116.88;37.33;;;;;;;-8.76;65.04;100319.19;5167746;28;20159;-70
2022/12/17 22:16:57;;;;;;;124.90;35.20;;;;;;;-8.60;64.22;100302.16;5162395;28;20543;-70
2022/12/17 22:19:47;;;;;;;109.20;34.60;;;;;;;-8.57;63.66;100311.59;5181540;28;20187;-70
2022/12/17 22:22:37;;;;;;;120.53;36.30;;;;;;;-8.37;64.04;100307.34;5170759;28;20131;-70
2022/12/17 22:25:28;;;;;;;122.60;36.28;;;;;;;-8.53;63.79;100308.19;5164282;28;20050;-70
2022/12/17 22:28:18;;;;;;;113.80;35.88;;;;;;;-8.71;63.82;100297.78;5164678;28;20702;-69
2022/12/17 22:34:21;;;;;;;115.20;37.13;;;;;;;-9.06;65.37;100325.00;5163581;28;20073;-70
2022/12/17 22:37:31;;;;;;;123.57;37.58;;;;;;;-8.95;65.47;100311.38;5165562;28;20050;-71
2022/12/17 22:40:41;;;;;;;117.97;37.25;;;;;;;-8.93;65.25;100300.25;5163780;28;20168;-72
2022/12/17 22:43:53;;;;;;;119.45;36.45;;;;;;;-9.01;64.70;100286.47;5173503;28;20128;-69
2022/12/17 22:47:04;;;;;;;119.45;36.20;;;;;;;-8.82;64.18;100308.03;5175925;28;20330;-69
2022/12/17 22:49:54;;;;;;;109.10;36.33;;;;;;;-8.72;63.19;100314.94;5167578;28;20050;-68
2022/12/17 22:52:45;;;;;;;118.75;37.80;;;;;;;-8.84;64.85;100314.84;5182651;28;20052;-69
2022/12/17 22:55:36;;;;;;;128.48;37.58;;;;;;;-8.64;65.39;100299.53;5182188;28;20156;-70
2022/12/17 22:58:27;;;;;;;111.65;34.85;;;;;;;-8.61;64.76;100303.00;5177255;28;20053;-70
2022/12/17 23:01:17;;;;;;;120.40;36.40;;;;;;;-8.92;64.57;100303.69;5175007;28;20566;-69
2022/12/17 23:04:14;;;;;;;109.43;34.00;;;;;;;-8.96;64.83;100335.34;5177376;28;20452;-69
2022/12/17 23:07:05;;;;;;;110.88;33.10;;;;;;;-9.16;64.35;100307.81;5165877;28;20467;-69
2022/12/17 23:09:55;;;;;;;133.27;35.70;;;;;;;-9.01;64.80;100317.31;5174377;28;20057;-71
2022/12/17 23:12:53;;;;;;;124.13;34.67;;;;;;;-8.93;63.44;100309.69;5157877;28;20052;-69
2022/12/17 23:15:43;;;;;;;116.10;34.72;;;;;;;-9.07;64.17;100313.03;5178522;28;20419;-69
2022/12/17 23:18:33;;;;;;;111.07;35.53;;;;;;;-9.27;64.90;100309.44;5153837;28;20054;-69
2022/12/17 23:21:24;;;;;;;115.53;35.42;;;;;;;-9.26;64.95;100300.88;5165453;28;20053;-69
2022/12/17 23:24:15;;;;;;;107.03;34.75;;;;;;;-9.12;64.46;100313.84;5182493;28;20057;-74
2022/12/17 23:27:05;;;;;;;117.65;33.53;;;;;;;-9.18;64.37;100324.91;5163983;28;20085;-70
2022/12/17 23:29:55;;;;;;;116.82;32.65;;;;;;;-9.22;64.13;100324.03;5164944;28;20135;-72
2022/12/17 23:32:45;;;;;;;125.57;35.25;;;;;;;-9.08;64.37;100325.84;5151496;28;20109;-71
2022/12/17 23:35:35;;;;;;;112.72;35.80;;;;;;;-9.02;63.42;100326.75;5162249;28;20598;-69
2022/12/17 23:38:25;;;;;;;127.85;38.45;;;;;;;-9.07;64.31;100319.84;5172805;28;20057;-72
2022/12/17 23:41:21;;;;;;;121.05;37.53;;;;;;;-9.00;64.44;100324.19;5165206;28;20058;-73
2022/12/17 23:44:11;;;;;;;124.35;35.50;;;;;;;-9.14;64.99;100325.78;5180664;28;20519;-69
2022/12/17 23:47:01;;;;;;;114.90;35.40;;;;;;;-9.32;64.12;100305.97;5166569;28;20467;-69
2022/12/17 23:49:51;;;;;;;110.35;35.00;;;;;;;-9.17;64.18;100321.50;5176166;28;20417;-71
2022/12/17 23:52:41;;;;;;;114.15;31.85;;;;;;;-9.23;61.94;100306.06;5161638;28;20050;-72
2022/12/17 23:55:32;;;;;;;118.18;35.70;;;;;;;-9.23;63.17;100319.75;5180309;28;20448;-71
2022/12/17 23:58:22;;;;;;;110.90;33.28;;;;;;;-9.43;64.07;100298.19;5179917;28;20070;-70
